Detroit, Michigan
Traffic Map
Current Weather Conditions
Detroit, Michigan
Overcast Haze
Overcast
25°
Feels Like: 13°
Wind Chill: 13° Ceiling: 1700
Heat Index: 25° Visibility: 5mi
Dew Point: 21° Wind: 14mph
Humidity: 86% Direction: 210° (SSW)
Pressure: 30.07in Gusts: 21mph
Raw Report DataCYQG 110922Z AUTO 21012G18KT 5SM BR FEW012 OVC017 M04/M06 A3007 RMK SLP194
Traffic Incident Summary
Active as of:
Severity:
Category:
InformationThere was an issue retrieving the traffic information for this location. Please try a different location or try again shortly.
Advertisements